• Join FlightAware (Why Join?)
  • Login
  • US Flag 
01:09AM EDT


 

Airport Tracker/Info


-or-


 

Live Flight TrackerFlight Track Log ✈ N2RH ✈ 28-Apr-2014 ✈ KHPN - KCQX

Flight Track Log - Related Links

Times and Time Zones

All times are in EDT time to prevent confusion due to time zone crossing. See the N2RH flight status page for this flight to view local times or setup timezone preferences in your user account.

Time Position Orientation Groundspeed Altitude Reporting Facility
EDT Latitude Longitude Course Direction KTS MPH feet Rate Location/Type
09:00PM 41.0500 -73.7167 27° Northeast 96 110 2,000  Level New York TRACON
09:01PM 41.0667 -73.7333 323° Northwest 94 108 2,900 900 Climbing New York TRACON
09:02PM 41.1000 -73.7167 21° North 89 102 3,800 900 Climbing New York TRACON
09:03PM 41.1167 -73.7000 37° Northeast 90 104 4,700 840 Climbing New York TRACON
09:04PM 41.1333 -73.6833 37° Northeast 86 99 5,500 780 Climbing New York TRACON
09:05PM 41.2306 -73.5963 27° Northeast  Level FlightAware Approximate
09:05PM 41.1667 -73.6667 21° North 89 102 6,300  Level New York TRACON
09:06PM 41.1833 -73.6500 37° Northeast 85 98 7,000 360 Climbing New York TRACON
09:07PM 41.2167 -73.6333 21° North 111 128 7,100 60 Climbing New York TRACON
09:08PM 41.2333 -73.6000 56° Northeast 144 166 7,200 -60 Climbing New York TRACON
09:09PM 41.2797 -73.5719 24° Northeast 140 161 7,000 -60 Descending Boston Center
09:10PM 41.3000 -73.5236 61° Northeast 149 171 7,100  Climbing Boston Center
09:11PM 41.3219 -73.4769 58° Northeast 148 170 7,000 -60 Descending Boston Center
09:12PM 41.3431 -73.4233 62° Northeast 150 173 7,000  Level Boston Center
09:13PM 41.3597 -73.3733 66° East 150 173 7,000  Level Boston Center
09:14PM 41.3767 -73.3217 66° East 150 173 7,100  Climbing Boston Center
09:15PM 41.3931 -73.2697 67° East 151 174 7,000 -120 Descending Boston Center
09:16PM 41.4081 -73.2169 69° East 153 176 6,900 -60 Descending Boston Center
09:17PM 41.4233 -73.1644 69° East 152 175 6,900  Level Boston Center
09:18PM 41.4372 -73.1208 67° East 150 173 7,000  Climbing Boston Center
09:18PM 41.4414 -73.1100 63° Northeast 151 174 6,900  Descending Boston Center
09:19PM 41.4536 -73.0722 67° East 147 169 7,000  Climbing Boston Center
09:19PM 41.4592 -73.0603 58° Northeast 149 171 6,900  Descending Boston Center
09:20PM 41.4667 -73.0194 76° East 150 173 7,000  Climbing Boston Center
09:20PM 41.4706 -73.0069 67° East 148 170 6,900  Descending Boston Center
09:21PM 41.4769 -72.9686 77° East 152 175 7,000 60 Climbing Boston Center
09:21PM 41.4806 -72.9519 74° East 149 171 7,000  Level Boston Center
09:22PM 41.4858 -72.9144 79° East 152 175 7,000  Level Boston Center
09:22PM 41.4897 -72.8983 72° East 149 171 7,000  Level Boston Center
09:23PM 41.4942 -72.8628 81° East 154 177 7,000  Level Boston Center
09:23PM 41.5003 -72.8389 71° East 150 173 7,000  Level Boston Center
09:24PM 41.5031 -72.8086 83° East 158 182 7,000  Level Boston Center
09:24PM 41.5089 -72.7844 72° East 150 173 7,000  Level Boston Center
09:25PM 41.5147 -72.7408 80° East 151 174 7,000  Level Boston Center
09:25PM 41.5169 -72.7294 75° East 150 173 7,000  Level Boston Center
09:26PM 41.5233 -72.6867 79° East 155 178 7,000  Level Boston Center
09:26PM 41.5261 -72.6731 75° East 151 174 7,000  Level Boston Center
09:27PM 41.5328 -72.6297 78° East 154 177 7,000  Level Boston Center
09:27PM 41.5356 -72.6169 74° East 153 176 7,000  Level Boston Center
09:28PM 41.5439 -72.5797 73° East 152 175 7,000  Level Boston Center
09:28PM 41.5450 -72.5581 86° East 153 176 7,000  Level Boston Center
09:29PM 41.5503 -72.5300 76° East 152 175 7,000  Level Boston Center
09:29PM 41.5561 -72.5028 74° East 153 176 7,000  Level Boston Center
09:30PM 41.5642 -72.4747 69° East 152 175 7,000  Level Boston Center
09:30PM 41.5689 -72.4500 76° East 152 175 7,000  Level Boston Center
09:31PM 41.5767 -72.4275 65° Northeast 148 170 7,000  Level Boston Center
09:31PM 41.5828 -72.3975 75° East 151 174 7,000  Level Boston Center
09:32PM 41.5900 -72.3750 67° East 149 171 7,000  Level Boston Center
09:32PM 41.5956 -72.3461 76° East 150 173 7,000  Level Boston Center
09:33PM 41.6014 -72.3217 72° East 146 168 7,000  Level Boston Center
09:33PM 41.6064 -72.2939 76° East 149 171 7,000  Level Boston Center
09:34PM 41.6083 -72.2692 84° East 144 166 7,000  Level Boston Center
09:34PM 41.6128 -72.2381 79° East 143 165 7,000  Level Boston Center
09:35PM 41.6156 -72.2144 81° East 142 163 7,000  Level Boston Center
09:35PM 41.6181 -72.1861 83° East 143 165 7,000  Level Boston Center
09:36PM 41.6203 -72.1614 83° East 144 166 7,000  Level Boston Center
09:36PM 41.6217 -72.1328 86° East 143 165 7,000 -120 Level Boston Center
09:37PM 41.6167 -72.1078 105° East 151 174 6,900  Descending Boston Center
09:37PM 41.6158 -72.0786 92° East 149 171 7,000 60 Climbing Boston Center
09:38PM 41.6192 -72.0542 80° East 143 165 7,000  Level Boston Center
09:38PM 41.6197 -72.0217 89° East 145 167 7,000  Level Boston Center
09:39PM 41.6219 -72.0003 82° East 143 165 7,000  Level Boston Center
09:39PM 41.6236 -71.9689 86° East 144 166 7,000  Level Boston Center
09:40PM 41.6261 -71.9497 80° East 143 165 7,000  Level Boston Center
09:40PM 41.6261 -71.9161 90° East 144 166 7,000  Level Boston Center
09:41PM 41.6267 -71.8953 88° East 142 163 7,000  Level Boston Center
09:41PM 41.6286 -71.8642 85° East 144 166 7,000  Level Boston Center
09:42PM 41.6272 -71.8408 95° East 140 161 7,000  Level Boston Center
09:42PM 41.6306 -71.8081 82° East 143 165 7,000  Level Boston Center
09:43PM 41.6319 -71.7875 85° East 138 159 7,000  Level Boston Center
09:43PM 41.6328 -71.7569 88° East 141 162 7,000  Level Boston Center
09:44PM 41.6325 -71.7331 91° East 139 160 7,000  Level Boston Center
09:45PM 41.6347 -71.7061 84° East 141 162 7,000  Level Boston Center
09:45PM 41.6369 -71.6800 83° East 139 160 7,000  Level Boston Center
09:46PM 41.6381 -71.6539 87° East 141 162 7,000  Level Boston Center
09:46PM 41.6394 -71.6261 86° East 139 160 7,000  Level Boston Center
09:47PM 41.6403 -71.6025 87° East 141 162 7,000  Level Boston Center
09:47PM 41.6406 -71.5689 89° East 144 166 7,000  Level Boston Center
09:48PM 41.6417 -71.5461 86° East 141 162 7,000  Level Boston Center
09:48PM 41.6422 -71.5178 88° East 137 158 7,000  Level Boston Center
09:49PM 41.6439 -71.4947 84° East 141 162 7,000  Level Boston Center
09:49PM 41.6447 -71.4639 88° East 137 158 7,000  Level Boston Center
09:50PM 41.6464 -71.4442 84° East 138 159 7,000  Level Boston Center
09:50PM 41.6467 -71.4125 89° East 139 160 7,000  Level Boston Center
09:51PM 41.6478 -71.3928 86° East 138 159 7,000  Level Boston Center
09:51PM 41.6483 -71.3614 89° East 138 159 7,000  Level Boston Center
09:52PM 41.6497 -71.3383 85° East 138 159 7,000  Level Boston Center
09:52PM 41.6483 -71.3094 94° East 139 160 7,000  Level Boston Center
09:53PM 41.6511 -71.2867 81° East 138 159 7,000  Level Boston Center
09:53PM 41.6500 -71.2583 93° East 140 161 7,000  Level Boston Center
09:54PM 41.6531 -71.2350 80° East 139 160 7,000  Level Boston Center
09:54PM 41.6539 -71.2078 88° East 139 160 7,000  Level Boston Center
09:55PM 41.6558 -71.1836 84° East 139 160 7,000  Level Boston Center
09:55PM 41.6556 -71.1567 91° East 139 160 7,000  Level Boston Center
09:56PM 41.6589 -71.1319 80° East 139 160 7,000  Level Boston Center
09:57PM 41.6619 -71.0761 86° East 139 160 7,000 -180 Level Boston Center
09:58PM 41.6669 -71.0244 83° East 140 161 6,700 -600 Descending Boston Center
09:59PM 41.6697 -70.9653 86° East 159 183 5,900 -660 Descending Boston Center
10:00PM 41.6764 -70.9069 81° East 159 183 5,400 -480 Descending Boston Center
10:01PM 41.6806 -70.8494 84° East 159 183 5,000 -480 Descending Boston Center
10:02PM 41.6861 -70.7981 82° East 147 169 4,500 -600 Descending Boston Center
10:03PM 41.6903 -70.7414 84° East 152 175 3,800 -600 Descending Boston Center
10:04PM 41.6975 -70.6894 79° East 145 167 3,300 -420 Descending Boston Center
10:05PM 41.7022 -70.6419 82° East 134 154 3,000 -180 Descending Boston Center
10:06PM 41.7078 -70.5994 80° East 120 138 3,000  Level Boston Center
10:07PM 41.7089 -70.5564 88° East 120 138 3,000 -120 Level Boston Center
10:08PM 41.7111 -70.5142 86° East 117 135 2,800 -360 Descending Boston Center
10:09PM 41.7133 -70.4675 86° East 118 136 2,300 -420 Descending Boston Center
10:10PM 41.7172 -70.4136 84° East 120 138 2,000 -180 Descending Boston Center
10:11PM 41.7203 -70.3731 84° East 119 137 2,000  Level Boston Center
10:12PM 41.7242 -70.3339 82° East 112 129 2,000  Level Boston Center
10:13PM 41.7275 -70.2978 83° East 106 122 2,000  Level Boston Center
10:14PM 41.7206 -70.2581 103° East 106 122 2,000  Level Boston Center
10:15PM 41.7169 -70.2172 97° East 106 122 2,000  Level Boston Center
10:16PM 41.7125 -70.1764 98° East 106 122 2,000  Level Boston Center
10:17PM 41.7083 -70.1367 98° East 107 123 2,000  Level Boston Center
10:18PM 41.7042 -70.1042 100° East 102 117 2,000 -300 Level Boston Center
10:19PM 41.7025 -70.0783 95° East 85 98 1,400 -600 Descending Boston Center